createdAt,value
2023-03-10T00:01:15.290Z,100.00
2023-03-10T00:03:41.684Z,100.00
2023-03-10T00:06:09.689Z,100.00
2023-03-10T00:08:36.192Z,100.00
2023-03-10T00:11:02.587Z,100.00
2023-03-10T00:13:29.715Z,100.00
2023-03-10T00:15:56.190Z,100.00
2023-03-10T00:18:22.796Z,100.00
2023-03-10T00:20:50.714Z,100.00
2023-03-10T00:23:17.255Z,100.00
2023-03-10T00:25:43.930Z,100.00
2023-03-10T00:28:10.317Z,100.00
2023-03-10T00:30:37.391Z,100.00
2023-03-10T00:33:03.878Z,100.00
2023-03-10T00:35:30.591Z,100.00
2023-03-10T00:37:57.016Z,100.00
2023-03-10T00:40:23.489Z,100.00
2023-03-10T00:42:50.561Z,100.00
2023-03-10T00:45:17.751Z,100.00
2023-03-10T00:47:44.819Z,100.00
2023-03-10T00:50:11.759Z,100.00
2023-03-10T00:52:38.196Z,100.00
2023-03-10T00:55:05.277Z,100.00
2023-03-10T00:57:31.664Z,100.00
2023-03-10T00:59:58.050Z,100.00
2023-03-10T01:02:24.702Z,100.00
2023-03-10T01:04:51.765Z,100.00
2023-03-10T01:07:18.137Z,100.00
2023-03-10T01:09:44.568Z,100.00
2023-03-10T01:12:11.082Z,100.00
2023-03-10T01:14:37.690Z,100.00
2023-03-10T01:17:10.564Z,100.00
2023-03-10T01:19:37.077Z,100.00
2023-03-10T01:22:04.406Z,100.00
2023-03-10T01:24:30.871Z,100.00
2023-03-10T01:26:57.252Z,100.00
2023-03-10T01:29:23.632Z,100.00
2023-03-10T01:31:50.198Z,100.00
2023-03-10T01:34:16.760Z,100.00
2023-03-10T01:36:43.123Z,100.00
2023-03-10T01:39:10.142Z,100.00
2023-03-10T01:41:40.308Z,100.00
2023-03-10T01:44:14.000Z,100.00
2023-03-10T01:46:48.917Z,100.00
2023-03-10T01:49:24.114Z,100.00
2023-03-10T01:51:56.683Z,100.00
2023-03-10T01:54:28.425Z,100.00
2023-03-10T01:56:56.981Z,100.00
2023-03-10T01:59:25.708Z,100.00
2023-03-10T02:01:56.136Z,100.00
2023-03-10T02:04:29.650Z,100.00
2023-03-10T02:06:57.015Z,100.00
2023-03-10T02:09:25.033Z,100.00
2023-03-10T02:11:52.189Z,100.00
2023-03-10T02:14:18.821Z,100.00
2023-03-10T02:16:45.918Z,100.00
2023-03-10T02:19:26.660Z,100.00
2023-03-10T02:22:00.837Z,100.00
2023-03-10T02:24:34.879Z,100.00
2023-03-10T02:27:06.173Z,100.00
2023-03-10T02:29:52.503Z,100.00
2023-03-10T02:32:25.366Z,100.00
2023-03-10T02:34:51.865Z,100.00
2023-03-10T02:37:20.737Z,100.00
2023-03-10T02:39:47.544Z,100.00
2023-03-10T02:42:14.516Z,100.00
2023-03-10T02:44:43.434Z,100.00
2023-03-10T02:47:12.086Z,100.00
2023-03-10T02:49:40.488Z,100.00
2023-03-10T02:52:11.912Z,100.00
2023-03-10T02:54:38.281Z,100.00
2023-03-10T02:57:05.074Z,100.00
2023-03-10T02:59:31.592Z,100.00
2023-03-10T03:01:58.670Z,100.00
2023-03-10T03:04:25.103Z,100.00
2023-03-10T03:06:51.638Z,100.00
2023-03-10T03:09:20.287Z,100.00
2023-03-10T03:11:47.017Z,100.00
2023-03-10T03:14:13.917Z,100.00
2023-03-10T03:16:40.446Z,100.00
2023-03-10T03:19:10.172Z,100.00
2023-03-10T03:21:38.123Z,100.00
2023-03-10T03:24:04.851Z,100.00
2023-03-10T03:26:31.217Z,100.00
2023-03-10T03:29:03.880Z,100.00
2023-03-10T03:31:33.540Z,100.00
2023-03-10T03:34:29.840Z,100.00
2023-03-10T03:36:59.603Z,100.00
2023-03-10T03:39:31.762Z,100.00
2023-03-10T03:42:01.566Z,100.00
2023-03-10T03:44:33.739Z,100.00
2023-03-10T03:47:00.468Z,100.00
2023-03-10T03:49:27.843Z,100.00
2023-03-10T03:51:55.081Z,100.00
2023-03-10T03:54:23.149Z,100.00
2023-03-10T03:56:49.701Z,100.00
2023-03-10T03:59:16.413Z,100.00
2023-03-10T04:01:43.879Z,100.00
2023-03-10T04:04:10.492Z,100.00
2023-03-10T04:06:37.098Z,100.00
2023-03-10T04:09:06.540Z,100.00
2023-03-10T04:11:33.686Z,100.00
2023-03-10T04:14:00.324Z,100.00
2023-03-10T04:16:30.176Z,100.00
2023-03-10T04:18:56.729Z,100.00
2023-03-10T04:21:23.760Z,100.00
2023-03-10T04:23:52.506Z,100.00
2023-03-10T04:26:24.823Z,100.00
2023-03-10T04:28:51.398Z,100.00
2023-03-10T04:31:21.534Z,100.00
2023-03-10T04:33:49.955Z,100.00
2023-03-10T04:36:17.715Z,100.00
2023-03-10T04:38:46.825Z,100.00
2023-03-10T04:41:13.518Z,100.00
2023-03-10T04:43:47.113Z,100.00
2023-03-10T04:46:14.523Z,100.00
2023-03-10T04:48:45.973Z,100.00
2023-03-10T04:51:13.228Z,100.00
2023-03-10T04:53:47.782Z,100.00
2023-03-10T04:56:14.861Z,100.00
2023-03-10T04:58:41.908Z,100.00
2023-03-10T05:01:13.639Z,100.00
2023-03-10T05:03:45.038Z,100.00
2023-03-10T05:06:13.158Z,100.00
2023-03-10T05:08:40.844Z,100.00
2023-03-10T05:11:08.139Z,100.00
2023-03-10T05:13:34.979Z,100.00
2023-03-10T05:16:02.540Z,100.00
2023-03-10T05:18:29.958Z,100.00
2023-03-10T05:20:58.157Z,100.00
2023-03-10T05:23:26.249Z,100.00
2023-03-10T05:25:52.837Z,100.00
2023-03-10T05:28:20.550Z,100.00
2023-03-10T05:30:47.122Z,100.00
2023-03-10T05:33:13.629Z,100.00
2023-03-10T05:35:41.291Z,100.00
2023-03-10T05:38:08.179Z,100.00
2023-03-10T05:40:35.886Z,100.00
2023-03-10T05:43:02.373Z,100.00
2023-03-10T05:45:29.381Z,100.00
2023-03-10T05:47:55.900Z,100.00
2023-03-10T05:50:22.398Z,100.00
2023-03-10T05:52:49.959Z,100.00
2023-03-10T05:55:18.660Z,100.00
2023-03-10T05:57:46.322Z,100.00
2023-03-10T06:00:14.890Z,100.00
2023-03-10T06:02:45.044Z,100.00
2023-03-10T06:05:12.874Z,100.00
2023-03-10T06:07:40.378Z,100.00
2023-03-10T06:10:09.461Z,100.00
2023-03-10T06:12:35.995Z,100.00
2023-03-10T06:15:02.511Z,100.00
2023-03-10T06:17:28.956Z,100.00
2023-03-10T06:19:55.473Z,100.00
2023-03-10T06:22:21.840Z,100.00
2023-03-10T06:24:48.302Z,100.00
2023-03-10T06:27:15.605Z,100.00
2023-03-10T06:29:42.053Z,100.00
2023-03-10T06:32:08.564Z,100.00
2023-03-10T06:34:34.954Z,100.00
2023-03-10T06:37:01.474Z,100.00
2023-03-10T06:39:28.426Z,100.00
2023-03-10T06:41:54.934Z,100.00
2023-03-10T06:44:22.078Z,100.00
2023-03-10T06:46:48.599Z,100.00
2023-03-10T06:49:15.182Z,100.00
2023-03-10T06:51:41.683Z,100.00
2023-03-10T06:54:09.208Z,100.00
2023-03-10T06:56:38.634Z,100.00
2023-03-10T06:59:08.035Z,100.00
2023-03-10T07:01:35.335Z,100.00
2023-03-10T07:04:07.264Z,100.00
2023-03-10T07:06:33.999Z,100.00
2023-03-10T07:09:00.537Z,100.00
2023-03-10T07:11:27.510Z,100.00
2023-03-10T07:13:54.310Z,100.00
2023-03-10T07:16:21.476Z,100.00
2023-03-10T07:18:48.670Z,100.00
2023-03-10T07:21:17.388Z,100.00
2023-03-10T07:23:44.541Z,100.00
2023-03-10T07:26:13.752Z,100.00
2023-03-10T07:28:40.399Z,100.00
2023-03-10T07:31:08.974Z,100.00
2023-03-10T07:33:36.091Z,100.00
2023-03-10T07:36:05.562Z,100.00
2023-03-10T07:38:32.331Z,100.00
2023-03-10T07:41:00.856Z,100.00
2023-03-10T07:43:28.442Z,100.00
2023-03-10T07:45:55.311Z,100.00
2023-03-10T07:48:21.893Z,100.00
2023-03-10T07:50:55.571Z,100.00
2023-03-10T07:53:22.692Z,100.00
2023-03-10T07:55:52.346Z,100.00
2023-03-10T07:58:19.403Z,100.00
2023-03-10T08:00:47.026Z,100.00
2023-03-10T08:03:13.591Z,100.00
2023-03-10T08:05:43.547Z,100.00
2023-03-10T08:08:10.052Z,100.00
2023-03-10T08:10:37.564Z,100.00
2023-03-10T08:13:04.054Z,100.00
2023-03-10T08:15:30.535Z,100.00
2023-03-10T08:17:56.965Z,100.00
2023-03-10T08:20:26.523Z,100.00
2023-03-10T08:22:53.092Z,100.00
2023-03-10T08:25:19.688Z,100.00
2023-03-10T08:27:46.893Z,100.00
2023-03-10T08:30:14.045Z,100.00
2023-03-10T08:32:41.515Z,100.00
2023-03-10T08:35:09.099Z,100.00
2023-03-10T08:37:35.730Z,100.00
2023-03-10T08:40:07.092Z,100.00
2023-03-10T08:42:35.756Z,100.00
2023-03-10T08:45:03.716Z,100.00
2023-03-10T08:47:32.321Z,100.00
2023-03-10T08:49:59.200Z,100.00
2023-03-10T08:52:25.784Z,100.00
2023-03-10T08:54:52.324Z,100.00
2023-03-10T08:57:19.586Z,100.00
2023-03-10T08:59:46.236Z,100.00
2023-03-10T09:02:14.627Z,100.00
2023-03-10T09:04:41.322Z,100.00
2023-03-10T09:07:07.814Z,100.00
2023-03-10T09:09:34.252Z,100.00
2023-03-10T09:12:00.941Z,100.00
2023-03-10T09:14:27.551Z,100.00
2023-03-10T09:16:54.121Z,100.00
2023-03-10T09:19:21.387Z,100.00
2023-03-10T09:21:47.983Z,100.00
2023-03-10T09:24:14.615Z,100.00
2023-03-10T09:26:49.875Z,100.00
2023-03-10T09:29:16.766Z,94.26
2023-03-10T09:31:44.737Z,87.00
2023-03-10T09:34:11.450Z,84.07
2023-03-10T09:36:38.822Z,80.02
2023-03-10T09:39:05.693Z,75.63
2023-03-10T09:42:08.262Z,77.97
2023-03-10T09:44:42.561Z,75.89
2023-03-10T09:47:24.452Z,72.43
2023-03-10T09:50:02.754Z,77.28
2023-03-10T09:52:40.608Z,76.99
2023-03-10T09:55:18.383Z,76.53
2023-03-10T09:57:47.274Z,80.81
2023-03-10T10:00:21.724Z,80.06
2023-03-10T10:03:03.565Z,79.05
2023-03-10T10:05:33.393Z,88.46
2023-03-10T10:08:05.471Z,92.79
2023-03-10T10:10:36.047Z,95.16
2023-03-10T10:13:12.904Z,100.00
2023-03-10T10:15:43.786Z,100.00
2023-03-10T10:18:24.092Z,100.00
2023-03-10T10:20:58.224Z,100.00
2023-03-10T10:23:37.944Z,100.00
2023-03-10T10:26:10.964Z,100.00
2023-03-10T10:28:42.732Z,100.00
2023-03-10T10:31:12.088Z,100.00
2023-03-10T10:33:53.729Z,100.00
2023-03-10T10:36:20.319Z,100.00
2023-03-10T10:38:49.829Z,100.00
2023-03-10T10:41:20.482Z,100.00
2023-03-10T10:43:50.022Z,100.00
2023-03-10T10:46:25.208Z,100.00
2023-03-10T10:49:01.640Z,100.00
2023-03-10T10:51:30.140Z,100.00
2023-03-10T10:53:58.348Z,100.00
2023-03-10T10:56:27.870Z,100.00
2023-03-10T10:59:03.560Z,100.00
2023-03-10T11:01:47.883Z,100.00
2023-03-10T11:04:17.102Z,100.00
2023-03-10T11:06:44.443Z,100.00
2023-03-10T11:09:14.468Z,100.00
2023-03-10T11:11:51.977Z,100.00
2023-03-10T11:14:34.158Z,100.00
2023-03-10T11:17:06.222Z,100.00
2023-03-10T11:19:42.659Z,100.00
2023-03-10T11:22:21.457Z,100.00
2023-03-10T11:24:55.644Z,100.00
2023-03-10T11:27:35.244Z,100.00
2023-03-10T11:30:09.542Z,100.00
2023-03-10T11:32:48.462Z,100.00
2023-03-10T11:35:23.786Z,100.00
2023-03-10T11:37:54.711Z,100.00
2023-03-10T11:40:29.140Z,100.00
2023-03-10T11:43:01.034Z,100.00
2023-03-10T11:45:32.175Z,100.00
2023-03-10T11:48:22.790Z,100.00
2023-03-10T11:50:52.445Z,100.00
2023-03-10T11:53:29.183Z,100.00
2023-03-10T11:55:59.314Z,100.00
2023-03-10T11:58:41.063Z,100.00
2023-03-10T12:01:11.680Z,100.00
2023-03-10T12:03:47.136Z,100.00
2023-03-10T12:06:19.107Z,100.00
2023-03-10T12:08:49.334Z,100.00
2023-03-10T12:11:21.276Z,100.00
2023-03-10T12:13:51.525Z,100.00
2023-03-10T12:16:21.892Z,100.00
2023-03-10T12:18:50.613Z,100.00
2023-03-10T12:21:21.726Z,100.00
2023-03-10T12:23:49.482Z,95.87
2023-03-10T12:26:51.392Z,95.94
2023-03-10T12:29:34.516Z,92.36
2023-03-10T12:32:01.393Z,92.21
2023-03-10T12:34:33.423Z,91.38
2023-03-10T12:37:06.518Z,92.97
2023-03-10T12:39:38.180Z,92.43
2023-03-10T12:42:34.279Z,95.50
2023-03-10T12:45:21.199Z,97.85
2023-03-10T12:47:55.756Z,96.29
2023-03-10T12:50:31.879Z,99.54
2023-03-10T12:53:05.597Z,100.00
2023-03-10T12:55:32.798Z,100.00
2023-03-10T12:58:20.761Z,100.00
2023-03-10T13:00:50.233Z,100.00
2023-03-10T13:03:27.376Z,100.00
2023-03-10T13:06:00.642Z,100.00
2023-03-10T13:08:34.508Z,100.00
2023-03-10T13:11:02.614Z,100.00
2023-03-10T13:13:32.674Z,100.00
2023-03-10T13:16:00.998Z,100.00
2023-03-10T13:18:27.458Z,100.00
2023-03-10T13:20:54.072Z,100.00
2023-03-10T13:23:23.591Z,100.00
2023-03-10T13:25:54.466Z,100.00
2023-03-10T13:28:21.072Z,100.00
2023-03-10T13:30:48.141Z,100.00
2023-03-10T13:33:19.161Z,100.00
2023-03-10T13:35:46.507Z,100.00
2023-03-10T13:38:16.015Z,100.00
2023-03-10T13:40:44.645Z,100.00
2023-03-10T13:43:32.280Z,100.00
2023-03-10T13:46:00.878Z,100.00
2023-03-10T13:48:29.523Z,100.00
2023-03-10T13:51:18.015Z,100.00
2023-03-10T13:53:45.393Z,100.00
2023-03-10T13:56:18.541Z,100.00
2023-03-10T13:58:46.983Z,100.00
2023-03-10T14:01:18.357Z,100.00
2023-03-10T14:03:57.252Z,100.00
2023-03-10T14:06:25.541Z,100.00
2023-03-10T14:08:52.355Z,100.00
2023-03-10T14:11:34.046Z,100.00
2023-03-10T14:14:01.734Z,100.00
2023-03-10T14:16:46.805Z,100.00
2023-03-10T14:19:13.961Z,100.00
2023-03-10T14:21:52.405Z,100.00
2023-03-10T14:24:27.210Z,100.00
2023-03-10T14:26:54.590Z,100.00
2023-03-10T14:29:21.176Z,100.00
2023-03-10T14:31:51.038Z,100.00
2023-03-10T14:34:17.443Z,100.00
2023-03-10T14:36:43.910Z,100.00
2023-03-10T14:39:10.469Z,100.00
2023-03-10T14:41:37.003Z,100.00
2023-03-10T14:44:03.563Z,100.00
2023-03-10T14:46:32.083Z,100.00
2023-03-10T14:48:59.425Z,100.00
2023-03-10T14:51:35.388Z,100.00
2023-03-10T14:54:02.388Z,100.00
2023-03-10T14:56:29.767Z,100.00
2023-03-10T14:58:57.574Z,100.00
2023-03-10T15:01:24.147Z,100.00
2023-03-10T15:03:50.704Z,100.00
2023-03-10T15:06:22.063Z,100.00
2023-03-10T15:08:48.547Z,100.00
2023-03-10T15:11:23.997Z,100.00
2023-03-10T15:13:57.478Z,100.00
2023-03-10T15:16:23.911Z,100.00
2023-03-10T15:18:52.360Z,100.00
2023-03-10T15:21:19.597Z,100.00
2023-03-10T15:23:48.307Z,100.00
2023-03-10T15:26:14.762Z,100.00
2023-03-10T15:28:41.199Z,100.00
2023-03-10T15:31:07.590Z,100.00
2023-03-10T15:33:33.996Z,100.00
2023-03-10T15:36:00.540Z,100.00
2023-03-10T15:38:27.713Z,100.00
2023-03-10T15:40:54.096Z,100.00
2023-03-10T15:43:20.572Z,100.00
2023-03-10T15:45:50.527Z,100.00
2023-03-10T15:48:17.828Z,100.00
2023-03-10T15:50:46.375Z,100.00
2023-03-10T15:53:13.177Z,100.00
2023-03-10T15:55:41.336Z,100.00
2023-03-10T15:58:07.861Z,100.00
2023-03-10T16:00:34.294Z,100.00
2023-03-10T16:03:00.725Z,100.00
2023-03-10T16:05:27.489Z,100.00
2023-03-10T16:07:53.902Z,100.00
2023-03-10T16:10:20.901Z,100.00
2023-03-10T16:12:48.068Z,100.00
2023-03-10T16:15:17.622Z,100.00
2023-03-10T16:17:44.678Z,100.00
2023-03-10T16:20:13.044Z,100.00
2023-03-10T16:22:40.495Z,100.00
2023-03-10T16:25:10.084Z,100.00
2023-03-10T16:27:36.485Z,100.00
2023-03-10T16:30:04.664Z,100.00
2023-03-10T16:32:31.242Z,100.00
2023-03-10T16:34:59.226Z,100.00
2023-03-10T16:37:26.943Z,100.00
2023-03-10T16:39:53.560Z,100.00
2023-03-10T16:42:20.151Z,100.00
2023-03-10T16:44:46.912Z,100.00
2023-03-10T16:47:15.678Z,100.00
2023-03-10T16:49:43.608Z,100.00
2023-03-10T16:52:10.213Z,100.00
2023-03-10T16:54:37.150Z,100.00
2023-03-10T16:57:06.262Z,100.00
2023-03-10T16:59:33.407Z,100.00
2023-03-10T17:01:59.899Z,100.00
2023-03-10T17:04:27.394Z,100.00
2023-03-10T17:06:53.850Z,100.00
2023-03-10T17:09:20.276Z,100.00
2023-03-10T17:11:50.215Z,100.00
2023-03-10T17:14:18.277Z,100.00
2023-03-10T17:16:45.625Z,100.00
2023-03-10T17:19:14.471Z,100.00
2023-03-10T17:21:45.977Z,100.00
2023-03-10T17:24:13.634Z,100.00
2023-03-10T17:26:40.407Z,100.00
2023-03-10T17:29:06.892Z,100.00
2023-03-10T17:31:33.520Z,100.00
2023-03-10T17:34:01.463Z,100.00
2023-03-10T17:36:28.327Z,100.00
2023-03-10T17:38:57.430Z,100.00
2023-03-10T17:41:24.588Z,100.00
2023-03-10T17:43:52.538Z,100.00
2023-03-10T17:46:21.041Z,100.00
2023-03-10T17:48:48.297Z,100.00
2023-03-10T17:51:15.816Z,100.00
2023-03-10T17:53:42.580Z,100.00
2023-03-10T17:56:10.336Z,100.00
2023-03-10T17:58:36.862Z,100.00
2023-03-10T18:01:08.078Z,100.00
2023-03-10T18:03:38.154Z,100.00
2023-03-10T18:06:11.948Z,100.00
2023-03-10T18:08:38.383Z,100.00
2023-03-10T18:11:06.097Z,100.00
2023-03-10T18:13:33.506Z,100.00
2023-03-10T18:15:59.923Z,100.00
2023-03-10T18:18:26.555Z,100.00
2023-03-10T18:20:52.976Z,100.00
2023-03-10T18:23:19.956Z,100.00
2023-03-10T18:25:47.006Z,100.00
2023-03-10T18:28:18.515Z,100.00
2023-03-10T18:30:47.899Z,100.00
2023-03-10T18:33:18.521Z,100.00
2023-03-10T18:35:46.303Z,100.00
2023-03-10T18:38:14.806Z,100.00
2023-03-10T18:40:41.684Z,100.00
2023-03-10T18:43:08.754Z,100.00
2023-03-10T18:45:35.557Z,100.00
2023-03-10T18:48:02.736Z,100.00
2023-03-10T18:50:36.478Z,100.00
2023-03-10T18:53:03.026Z,100.00
2023-03-10T18:55:29.628Z,100.00
2023-03-10T18:57:56.324Z,100.00
2023-03-10T19:00:47.766Z,100.00
2023-03-10T19:03:15.807Z,100.00
2023-03-10T19:05:43.368Z,100.00
2023-03-10T19:08:10.441Z,100.00
2023-03-10T19:10:37.505Z,100.00
2023-03-10T19:13:04.095Z,100.00
2023-03-10T19:15:30.697Z,100.00
2023-03-10T19:17:57.426Z,100.00
2023-03-10T19:20:24.625Z,100.00
2023-03-10T19:22:51.610Z,100.00
2023-03-10T19:25:19.441Z,100.00
2023-03-10T19:27:48.080Z,100.00
2023-03-10T19:30:17.307Z,100.00
2023-03-10T19:32:44.633Z,100.00
2023-03-10T19:35:12.326Z,100.00
2023-03-10T19:37:42.723Z,100.00
2023-03-10T19:40:13.838Z,100.00
2023-03-10T19:42:42.083Z,100.00
2023-03-10T19:45:09.951Z,100.00
2023-03-10T19:47:36.464Z,100.00
2023-03-10T19:50:03.889Z,100.00
2023-03-10T19:52:40.813Z,100.00
2023-03-10T19:55:10.752Z,100.00
2023-03-10T19:57:37.600Z,100.00
2023-03-10T20:00:06.505Z,100.00
2023-03-10T20:02:32.967Z,100.00
2023-03-10T20:04:59.817Z,100.00
2023-03-10T20:07:26.493Z,100.00
2023-03-10T20:09:55.836Z,100.00
2023-03-10T20:12:23.278Z,100.00
2023-03-10T20:14:50.015Z,100.00
2023-03-10T20:17:19.148Z,100.00
2023-03-10T20:19:45.704Z,100.00
2023-03-10T20:22:17.815Z,100.00
2023-03-10T20:24:44.720Z,100.00
2023-03-10T20:27:11.953Z,100.00
2023-03-10T20:29:39.315Z,100.00
2023-03-10T20:32:06.991Z,100.00
2023-03-10T20:34:40.415Z,100.00
2023-03-10T20:37:07.235Z,100.00
2023-03-10T20:39:33.670Z,100.00
2023-03-10T20:42:02.122Z,100.00
2023-03-10T20:44:28.685Z,100.00
2023-03-10T20:46:55.833Z,100.00
2023-03-10T20:49:22.328Z,100.00
2023-03-10T20:51:49.293Z,100.00
2023-03-10T20:54:15.743Z,100.00
2023-03-10T20:56:42.556Z,100.00
2023-03-10T20:59:08.952Z,100.00
2023-03-10T21:01:41.540Z,100.00
2023-03-10T21:04:08.818Z,100.00
2023-03-10T21:06:38.975Z,100.00
2023-03-10T21:09:05.765Z,100.00
2023-03-10T21:11:32.530Z,100.00
2023-03-10T21:14:02.351Z,100.00
2023-03-10T21:16:29.201Z,100.00
2023-03-10T21:18:55.993Z,100.00
2023-03-10T21:21:24.132Z,100.00
2023-03-10T21:23:53.835Z,100.00
2023-03-10T21:26:21.016Z,100.00
2023-03-10T21:28:48.011Z,100.00
2023-03-10T21:31:15.050Z,100.00
2023-03-10T21:33:41.778Z,100.00
2023-03-10T21:36:11.172Z,100.00
2023-03-10T21:38:38.490Z,100.00
2023-03-10T21:41:05.736Z,100.00
2023-03-10T21:43:32.177Z,100.00
2023-03-10T21:45:58.645Z,100.00
2023-03-10T21:48:25.198Z,100.00
2023-03-10T21:50:52.138Z,100.00
2023-03-10T21:53:19.970Z,100.00
2023-03-10T21:55:47.306Z,100.00
2023-03-10T21:58:13.921Z,100.00
2023-03-10T22:00:43.985Z,100.00
2023-03-10T22:03:10.682Z,100.00
2023-03-10T22:05:37.206Z,100.00
2023-03-10T22:08:04.051Z,100.00
2023-03-10T22:10:30.698Z,100.00
2023-03-10T22:12:58.055Z,100.00
2023-03-10T22:15:26.432Z,100.00
2023-03-10T22:17:54.533Z,100.00
2023-03-10T22:20:23.483Z,100.00
2023-03-10T22:22:50.738Z,100.00
2023-03-10T22:25:17.850Z,100.00
2023-03-10T22:27:48.925Z,100.00
2023-03-10T22:30:16.513Z,100.00
2023-03-10T22:32:43.394Z,100.00
2023-03-10T22:35:10.687Z,100.00
2023-03-10T22:37:37.183Z,100.00
2023-03-10T22:40:04.883Z,100.00
2023-03-10T22:42:31.364Z,100.00
2023-03-10T22:44:57.869Z,100.00
2023-03-10T22:47:25.198Z,100.00
2023-03-10T22:49:51.625Z,100.00
2023-03-10T22:52:18.034Z,100.00
2023-03-10T22:54:44.431Z,100.00
2023-03-10T22:57:14.282Z,100.00
2023-03-10T22:59:41.221Z,100.00
2023-03-10T23:02:07.719Z,100.00
2023-03-10T23:04:34.869Z,100.00
2023-03-10T23:07:01.360Z,100.00
2023-03-10T23:09:27.895Z,100.00
2023-03-10T23:11:54.540Z,100.00
2023-03-10T23:14:21.031Z,100.00
2023-03-10T23:16:47.641Z,100.00
2023-03-10T23:19:14.032Z,100.00
2023-03-10T23:21:41.108Z,100.00
2023-03-10T23:24:07.618Z,100.00
2023-03-10T23:26:34.384Z,100.00
2023-03-10T23:29:02.132Z,100.00
2023-03-10T23:31:28.792Z,100.00
2023-03-10T23:33:55.336Z,100.00
2023-03-10T23:36:21.826Z,100.00
2023-03-10T23:38:48.886Z,100.00
2023-03-10T23:41:15.504Z,100.00
2023-03-10T23:43:42.541Z,100.00
2023-03-10T23:46:09.080Z,100.00
2023-03-10T23:48:35.534Z,100.00
2023-03-10T23:51:02.215Z,100.00
2023-03-10T23:53:29.335Z,100.00
2023-03-10T23:55:58.052Z,100.00
2023-03-10T23:58:24.830Z,100.00
